Terminal Aerodrome Forecast
Issued by NWS

Home | Current Version | Previous Version | Text Only | Print | Product List | Glossary On
Versions: 1 2 3 4 5 6 7 8 9 10 11 12 13 14 15
000
FTUS44 KCRP 021100
TAFLRD
TAF
KLRD 021128Z 0212/0312 12008KT P6SM SCT016
      TEMPO 0212/0215 BKN016
     FM021500 15012KT P6SM SCT028
      TEMPO 0215/0217 BKN028
     FM021900 13015KT P6SM VCTS BKN050CB PROB30 0221/0301 5SM -TSRA
      BKN035CB
     FM030200 12015KT P6SM SCT030 BKN120
     FM031000 12009KT P6SM BKN015 BKN100=

USA.gov is the U.S. government's official web portal to all federal, state and local government web resources and services.